sensor_id;sensor_type;location;lat;lon;timestamp;P1;durP1;ratioP1;P2;durP2;ratioP2
36137;SDS011;22194;50.046;21.954;2022-08-03T00:01:42;38.50;;;29.70;;
36137;SDS011;22194;50.046;21.954;2022-08-03T00:04:10;36.00;;;29.10;;
36137;SDS011;22194;50.046;21.954;2022-08-03T00:06:38;35.70;;;28.20;;
36137;SDS011;22194;50.046;21.954;2022-08-03T00:09:06;35.20;;;27.10;;
36137;SDS011;22194;50.046;21.954;2022-08-03T00:11:35;33.90;;;27.00;;
36137;SDS011;22194;50.046;21.954;2022-08-03T00:14:03;37.60;;;29.80;;
36137;SDS011;22194;50.046;21.954;2022-08-03T00:16:32;39.00;;;30.00;;
36137;SDS011;22194;50.046;21.954;2022-08-03T00:19:00;38.80;;;30.40;;
36137;SDS011;22194;50.046;21.954;2022-08-03T00:21:29;38.20;;;29.20;;
36137;SDS011;22194;50.046;21.954;2022-08-03T00:23:57;41.90;;;28.70;;
36137;SDS011;22194;50.046;21.954;2022-08-03T00:26:25;36.50;;;29.00;;
36137;SDS011;22194;50.046;21.954;2022-08-03T00:28:52;38.60;;;30.80;;
36137;SDS011;22194;50.046;21.954;2022-08-03T00:31:20;39.90;;;29.80;;
36137;SDS011;22194;50.046;21.954;2022-08-03T00:34:06;36.50;;;28.30;;
36137;SDS011;22194;50.046;21.954;2022-08-03T00:36:34;33.30;;;24.90;;
36137;SDS011;22194;50.046;21.954;2022-08-03T00:39:02;35.80;;;26.90;;
36137;SDS011;22194;50.046;21.954;2022-08-03T00:41:30;35.50;;;25.80;;
36137;SDS011;22194;50.046;21.954;2022-08-03T00:43:58;33.40;;;24.20;;
36137;SDS011;22194;50.046;21.954;2022-08-03T00:46:26;33.50;;;26.40;;
36137;SDS011;22194;50.046;21.954;2022-08-03T00:48:53;35.20;;;27.60;;
36137;SDS011;22194;50.046;21.954;2022-08-03T00:51:21;35.50;;;25.90;;
36137;SDS011;22194;50.046;21.954;2022-08-03T00:53:50;34.30;;;25.70;;
36137;SDS011;22194;50.046;21.954;2022-08-03T00:56:18;33.20;;;24.80;;
36137;SDS011;22194;50.046;21.954;2022-08-03T00:58:46;33.10;;;24.50;;
36137;SDS011;22194;50.046;21.954;2022-08-03T01:01:14;31.80;;;24.00;;
36137;SDS011;22194;50.046;21.954;2022-08-03T01:03:44;34.10;;;24.80;;
36137;SDS011;22194;50.046;21.954;2022-08-03T01:06:16;35.10;;;27.80;;
36137;SDS011;22194;50.046;21.954;2022-08-03T01:11:54;34.00;;;25.60;;
36137;SDS011;22194;50.046;21.954;2022-08-03T01:14:35;35.30;;;26.00;;
36137;SDS011;22194;50.046;21.954;2022-08-03T01:17:12;34.30;;;25.70;;
36137;SDS011;22194;50.046;21.954;2022-08-03T01:19:50;32.50;;;24.80;;
36137;SDS011;22194;50.046;21.954;2022-08-03T01:30:16;33.90;;;27.00;;
36137;SDS011;22194;50.046;21.954;2022-08-03T01:32:50;33.60;;;26.30;;
36137;SDS011;22194;50.046;21.954;2022-08-03T01:35:32;33.10;;;26.50;;
36137;SDS011;22194;50.046;21.954;2022-08-03T01:38:11;35.00;;;26.20;;
36137;SDS011;22194;50.046;21.954;2022-08-03T01:40:41;34.60;;;26.60;;
36137;SDS011;22194;50.046;21.954;2022-08-03T01:43:16;36.50;;;26.60;;
36137;SDS011;22194;50.046;21.954;2022-08-03T01:46:06;34.90;;;26.60;;
36137;SDS011;22194;50.046;21.954;2022-08-03T01:48:36;33.40;;;26.20;;
36137;SDS011;22194;50.046;21.954;2022-08-03T01:51:07;32.70;;;26.00;;
36137;SDS011;22194;50.046;21.954;2022-08-03T01:53:37;33.00;;;25.40;;
36137;SDS011;22194;50.046;21.954;2022-08-03T01:56:10;35.20;;;26.40;;
36137;SDS011;22194;50.046;21.954;2022-08-03T01:58:40;35.30;;;26.60;;
36137;SDS011;22194;50.046;21.954;2022-08-03T02:01:10;33.10;;;26.50;;
36137;SDS011;22194;50.046;21.954;2022-08-03T02:03:40;31.60;;;24.40;;
36137;SDS011;22194;50.046;21.954;2022-08-03T02:06:28;33.80;;;24.60;;
36137;SDS011;22194;50.046;21.954;2022-08-03T02:09:18;31.50;;;24.00;;
36137;SDS011;22194;50.046;21.954;2022-08-03T02:11:48;34.00;;;25.30;;
36137;SDS011;22194;50.046;21.954;2022-08-03T02:14:18;32.90;;;26.30;;
36137;SDS011;22194;50.046;21.954;2022-08-03T02:16:48;32.10;;;25.60;;
36137;SDS011;22194;50.046;21.954;2022-08-03T02:19:17;33.50;;;26.90;;
36137;SDS011;22194;50.046;21.954;2022-08-03T02:21:46;34.30;;;25.10;;
36137;SDS011;22194;50.046;21.954;2022-08-03T02:24:27;32.00;;;23.90;;
36137;SDS011;22194;50.046;21.954;2022-08-03T02:26:56;32.50;;;25.20;;
36137;SDS011;22194;50.046;21.954;2022-08-03T02:29:26;30.10;;;23.50;;
36137;SDS011;22194;50.046;21.954;2022-08-03T02:32:11;32.80;;;25.10;;
36137;SDS011;22194;50.046;21.954;2022-08-03T02:34:41;33.40;;;24.80;;
36137;SDS011;22194;50.046;21.954;2022-08-03T02:37:14;31.20;;;24.40;;
36137;SDS011;22194;50.046;21.954;2022-08-03T02:39:44;32.20;;;25.20;;
36137;SDS011;22194;50.046;21.954;2022-08-03T02:42:14;32.50;;;25.30;;
36137;SDS011;22194;50.046;21.954;2022-08-03T02:44:47;31.20;;;24.10;;
36137;SDS011;22194;50.046;21.954;2022-08-03T02:47:16;32.10;;;23.10;;
36137;SDS011;22194;50.046;21.954;2022-08-03T02:49:48;27.80;;;21.40;;
36137;SDS011;22194;50.046;21.954;2022-08-03T02:52:19;30.40;;;22.20;;
36137;SDS011;22194;50.046;21.954;2022-08-03T02:54:51;28.30;;;22.00;;
36137;SDS011;22194;50.046;21.954;2022-08-03T02:57:21;28.10;;;22.00;;
36137;SDS011;22194;50.046;21.954;2022-08-03T02:59:52;28.50;;;21.70;;
36137;SDS011;22194;50.046;21.954;2022-08-03T03:02:21;29.40;;;23.20;;
36137;SDS011;22194;50.046;21.954;2022-08-03T03:04:51;28.60;;;22.10;;
36137;SDS011;22194;50.046;21.954;2022-08-03T03:07:39;30.60;;;22.90;;
36137;SDS011;22194;50.046;21.954;2022-08-03T03:10:20;28.50;;;21.90;;
36137;SDS011;22194;50.046;21.954;2022-08-03T03:12:49;27.90;;;20.80;;
36137;SDS011;22194;50.046;21.954;2022-08-03T03:15:19;28.70;;;20.50;;
36137;SDS011;22194;50.046;21.954;2022-08-03T03:17:48;26.40;;;20.40;;
36137;SDS011;22194;50.046;21.954;2022-08-03T03:20:17;29.10;;;21.70;;
36137;SDS011;22194;50.046;21.954;2022-08-03T03:22:57;29.30;;;20.80;;
36137;SDS011;22194;50.046;21.954;2022-08-03T03:25:27;26.70;;;19.10;;
36137;SDS011;22194;50.046;21.954;2022-08-03T03:27:59;31.40;;;20.80;;
36137;SDS011;22194;50.046;21.954;2022-08-03T03:30:28;29.70;;;21.20;;
36137;SDS011;22194;50.046;21.954;2022-08-03T03:32:57;26.80;;;20.30;;
36137;SDS011;22194;50.046;21.954;2022-08-03T03:35:25;26.30;;;20.00;;
36137;SDS011;22194;50.046;21.954;2022-08-03T03:37:54;28.40;;;19.80;;
36137;SDS011;22194;50.046;21.954;2022-08-03T03:40:22;27.70;;;21.50;;
36137;SDS011;22194;50.046;21.954;2022-08-03T03:42:51;27.30;;;19.90;;
36137;SDS011;22194;50.046;21.954;2022-08-03T03:45:19;27.60;;;18.90;;
36137;SDS011;22194;50.046;21.954;2022-08-03T03:47:48;26.00;;;20.20;;
36137;SDS011;22194;50.046;21.954;2022-08-03T03:50:17;28.90;;;21.80;;
36137;SDS011;22194;50.046;21.954;2022-08-03T03:52:45;25.00;;;18.80;;
36137;SDS011;22194;50.046;21.954;2022-08-03T03:55:16;29.70;;;22.30;;
36137;SDS011;22194;50.046;21.954;2022-08-03T03:57:45;29.30;;;21.10;;
36137;SDS011;22194;50.046;21.954;2022-08-03T04:00:13;28.10;;;21.40;;
36137;SDS011;22194;50.046;21.954;2022-08-03T04:02:43;28.70;;;21.80;;
36137;SDS011;22194;50.046;21.954;2022-08-03T04:05:12;31.00;;;22.60;;
36137;SDS011;22194;50.046;21.954;2022-08-03T04:08:00;28.10;;;21.30;;
36137;SDS011;22194;50.046;21.954;2022-08-03T04:10:53;29.00;;;22.30;;
36137;SDS011;22194;50.046;21.954;2022-08-03T04:13:33;30.80;;;23.20;;
36137;SDS011;22194;50.046;21.954;2022-08-03T04:16:04;29.00;;;22.40;;
36137;SDS011;22194;50.046;21.954;2022-08-03T04:18:34;28.20;;;22.20;;
36137;SDS011;22194;50.046;21.954;2022-08-03T04:21:07;28.10;;;22.20;;
36137;SDS011;22194;50.046;21.954;2022-08-03T04:23:39;30.20;;;23.60;;
36137;SDS011;22194;50.046;21.954;2022-08-03T04:26:11;32.00;;;22.00;;
36137;SDS011;22194;50.046;21.954;2022-08-03T04:28:42;28.40;;;22.30;;
36137;SDS011;22194;50.046;21.954;2022-08-03T04:31:14;28.10;;;21.80;;
36137;SDS011;22194;50.046;21.954;2022-08-03T04:33:44;28.80;;;21.50;;
36137;SDS011;22194;50.046;21.954;2022-08-03T04:36:16;30.40;;;23.40;;
36137;SDS011;22194;50.046;21.954;2022-08-03T04:41:30;29.10;;;22.10;;
36137;SDS011;22194;50.046;21.954;2022-08-03T04:44:22;30.40;;;23.10;;
36137;SDS011;22194;50.046;21.954;2022-08-03T04:46:55;31.30;;;24.10;;
36137;SDS011;22194;50.046;21.954;2022-08-03T04:49:24;31.40;;;23.90;;
36137;SDS011;22194;50.046;21.954;2022-08-03T04:51:53;32.90;;;23.90;;
36137;SDS011;22194;50.046;21.954;2022-08-03T04:54:21;32.50;;;24.20;;
36137;SDS011;22194;50.046;21.954;2022-08-03T04:56:48;33.40;;;23.20;;
36137;SDS011;22194;50.046;21.954;2022-08-03T04:59:16;30.40;;;23.30;;
36137;SDS011;22194;50.046;21.954;2022-08-03T05:01:44;31.20;;;24.30;;
36137;SDS011;22194;50.046;21.954;2022-08-03T05:04:12;34.80;;;24.00;;
36137;SDS011;22194;50.046;21.954;2022-08-03T05:06:40;32.80;;;24.90;;
36137;SDS011;22194;50.046;21.954;2022-08-03T05:09:19;30.40;;;24.30;;
36137;SDS011;22194;50.046;21.954;2022-08-03T05:12:07;32.90;;;24.60;;
36137;SDS011;22194;50.046;21.954;2022-08-03T05:14:35;32.40;;;24.70;;
36137;SDS011;22194;50.046;21.954;2022-08-03T05:17:05;29.60;;;22.30;;
36137;SDS011;22194;50.046;21.954;2022-08-03T05:19:33;31.20;;;24.70;;
36137;SDS011;22194;50.046;21.954;2022-08-03T05:22:01;32.10;;;24.40;;
36137;SDS011;22194;50.046;21.954;2022-08-03T05:24:29;31.10;;;24.40;;
36137;SDS011;22194;50.046;21.954;2022-08-03T05:26:57;29.20;;;22.10;;
36137;SDS011;22194;50.046;21.954;2022-08-03T05:29:25;29.00;;;22.80;;
36137;SDS011;22194;50.046;21.954;2022-08-03T05:31:52;28.10;;;21.90;;
36137;SDS011;22194;50.046;21.954;2022-08-03T05:34:20;28.20;;;22.00;;
36137;SDS011;22194;50.046;21.954;2022-08-03T05:36:48;28.00;;;21.60;;
36137;SDS011;22194;50.046;21.954;2022-08-03T05:39:16;27.60;;;20.60;;
36137;SDS011;22194;50.046;21.954;2022-08-03T05:41:43;27.80;;;19.90;;
36137;SDS011;22194;50.046;21.954;2022-08-03T05:44:11;25.60;;;19.20;;
36137;SDS011;22194;50.046;21.954;2022-08-03T05:46:39;26.90;;;19.70;;
36137;SDS011;22194;50.046;21.954;2022-08-03T05:49:06;30.10;;;20.70;;
36137;SDS011;22194;50.046;21.954;2022-08-03T05:51:34;26.50;;;19.80;;
36137;SDS011;22194;50.046;21.954;2022-08-03T05:54:03;26.10;;;18.10;;
36137;SDS011;22194;50.046;21.954;2022-08-03T05:56:31;26.70;;;18.70;;
36137;SDS011;22194;50.046;21.954;2022-08-03T05:58:59;23.70;;;17.80;;
36137;SDS011;22194;50.046;21.954;2022-08-03T06:01:47;23.20;;;17.40;;
36137;SDS011;22194;50.046;21.954;2022-08-03T06:04:14;27.00;;;17.50;;
36137;SDS011;22194;50.046;21.954;2022-08-03T06:06:45;26.00;;;18.00;;
36137;SDS011;22194;50.046;21.954;2022-08-03T06:09:13;27.10;;;18.40;;
36137;SDS011;22194;50.046;21.954;2022-08-03T06:11:44;24.80;;;17.70;;
36137;SDS011;22194;50.046;21.954;2022-08-03T06:14:12;27.10;;;19.20;;
36137;SDS011;22194;50.046;21.954;2022-08-03T06:16:40;26.50;;;18.50;;
36137;SDS011;22194;50.046;21.954;2022-08-03T06:19:07;27.40;;;16.50;;
36137;SDS011;22194;50.046;21.954;2022-08-03T06:21:35;26.80;;;17.60;;
36137;SDS011;22194;50.046;21.954;2022-08-03T06:24:06;25.80;;;16.10;;
36137;SDS011;22194;50.046;21.954;2022-08-03T06:26:34;25.40;;;17.50;;
36137;SDS011;22194;50.046;21.954;2022-08-03T06:29:02;27.40;;;17.70;;
36137;SDS011;22194;50.046;21.954;2022-08-03T06:31:30;25.30;;;17.00;;
36137;SDS011;22194;50.046;21.954;2022-08-03T06:34:00;23.90;;;16.40;;
36137;SDS011;22194;50.046;21.954;2022-08-03T06:36:49;23.50;;;16.80;;
36137;SDS011;22194;50.046;21.954;2022-08-03T06:39:19;23.50;;;17.30;;
36137;SDS011;22194;50.046;21.954;2022-08-03T06:41:51;24.90;;;16.30;;
36137;SDS011;22194;50.046;21.954;2022-08-03T06:44:19;23.20;;;16.70;;
36137;SDS011;22194;50.046;21.954;2022-08-03T06:46:47;24.10;;;17.70;;
36137;SDS011;22194;50.046;21.954;2022-08-03T06:49:15;26.20;;;18.50;;
36137;SDS011;22194;50.046;21.954;2022-08-03T06:51:44;26.30;;;18.30;;
36137;SDS011;22194;50.046;21.954;2022-08-03T06:54:32;25.90;;;18.70;;
36137;SDS011;22194;50.046;21.954;2022-08-03T06:57:00;24.30;;;18.10;;
36137;SDS011;22194;50.046;21.954;2022-08-03T06:59:28;26.20;;;18.90;;
36137;SDS011;22194;50.046;21.954;2022-08-03T07:02:16;26.60;;;19.70;;
36137;SDS011;22194;50.046;21.954;2022-08-03T07:04:49;29.70;;;19.40;;
36137;SDS011;22194;50.046;21.954;2022-08-03T07:07:17;30.10;;;22.00;;
36137;SDS011;22194;50.046;21.954;2022-08-03T07:09:45;27.40;;;20.00;;
36137;SDS011;22194;50.046;21.954;2022-08-03T07:12:27;30.50;;;22.30;;
36137;SDS011;22194;50.046;21.954;2022-08-03T07:14:56;33.70;;;22.70;;
36137;SDS011;22194;50.046;21.954;2022-08-03T07:17:29;33.40;;;22.70;;
36137;SDS011;22194;50.046;21.954;2022-08-03T07:19:59;32.10;;;21.10;;
36137;SDS011;22194;50.046;21.954;2022-08-03T07:22:28;29.20;;;21.20;;
36137;SDS011;22194;50.046;21.954;2022-08-03T07:24:55;33.50;;;23.00;;
36137;SDS011;22194;50.046;21.954;2022-08-03T07:27:24;31.10;;;22.30;;
36137;SDS011;22194;50.046;21.954;2022-08-03T07:29:53;30.30;;;23.70;;
36137;SDS011;22194;50.046;21.954;2022-08-03T07:32:22;30.70;;;21.90;;
36137;SDS011;22194;50.046;21.954;2022-08-03T07:34:50;30.10;;;22.40;;
36137;SDS011;22194;50.046;21.954;2022-08-03T07:37:22;30.10;;;21.90;;
36137;SDS011;22194;50.046;21.954;2022-08-03T07:39:49;29.60;;;22.70;;
36137;SDS011;22194;50.046;21.954;2022-08-03T07:42:17;29.20;;;21.70;;
36137;SDS011;22194;50.046;21.954;2022-08-03T07:44:45;29.30;;;21.80;;
36137;SDS011;22194;50.046;21.954;2022-08-03T07:47:16;28.60;;;22.90;;
36137;SDS011;22194;50.046;21.954;2022-08-03T07:49:49;28.30;;;21.20;;
36137;SDS011;22194;50.046;21.954;2022-08-03T07:52:17;29.60;;;21.30;;
36137;SDS011;22194;50.046;21.954;2022-08-03T07:55:21;29.80;;;20.80;;
36137;SDS011;22194;50.046;21.954;2022-08-03T07:58:04;27.50;;;18.80;;
36137;SDS011;22194;50.046;21.954;2022-08-03T08:00:38;25.10;;;18.00;;
36137;SDS011;22194;50.046;21.954;2022-08-03T08:03:06;26.00;;;18.40;;
36137;SDS011;22194;50.046;21.954;2022-08-03T08:05:35;24.40;;;18.50;;
36137;SDS011;22194;50.046;21.954;2022-08-03T08:08:04;25.40;;;16.90;;
36137;SDS011;22194;50.046;21.954;2022-08-03T08:10:32;23.60;;;16.20;;
36137;SDS011;22194;50.046;21.954;2022-08-03T08:13:00;28.10;;;16.10;;
36137;SDS011;22194;50.046;21.954;2022-08-03T08:15:28;20.40;;;14.00;;
36137;SDS011;22194;50.046;21.954;2022-08-03T08:17:57;20.50;;;14.30;;
36137;SDS011;22194;50.046;21.954;2022-08-03T08:20:28;21.90;;;13.60;;
36137;SDS011;22194;50.046;21.954;2022-08-03T08:22:59;23.30;;;13.70;;
36137;SDS011;22194;50.046;21.954;2022-08-03T08:25:54;19.70;;;12.80;;
36137;SDS011;22194;50.046;21.954;2022-08-03T08:28:22;21.40;;;11.80;;
36137;SDS011;22194;50.046;21.954;2022-08-03T08:31:00;19.40;;;11.50;;
36137;SDS011;22194;50.046;21.954;2022-08-03T08:33:29;18.30;;;11.40;;
36137;SDS011;22194;50.046;21.954;2022-08-03T08:36:17;19.40;;;11.90;;
36137;SDS011;22194;50.046;21.954;2022-08-03T08:38:46;21.10;;;12.10;;
36137;SDS011;22194;50.046;21.954;2022-08-03T08:41:14;19.40;;;11.50;;
36137;SDS011;22194;50.046;21.954;2022-08-03T08:43:42;16.00;;;10.20;;
36137;SDS011;22194;50.046;21.954;2022-08-03T08:46:10;18.20;;;9.40;;
36137;SDS011;22194;50.046;21.954;2022-08-03T08:48:51;17.00;;;9.30;;
36137;SDS011;22194;50.046;21.954;2022-08-03T08:51:20;16.40;;;9.20;;
36137;SDS011;22194;50.046;21.954;2022-08-03T08:53:50;15.10;;;7.60;;
36137;SDS011;22194;50.046;21.954;2022-08-03T08:56:22;12.70;;;7.30;;
36137;SDS011;22194;50.046;21.954;2022-08-03T08:58:53;12.00;;;6.20;;
36137;SDS011;22194;50.046;21.954;2022-08-03T09:01:25;13.80;;;6.70;;
36137;SDS011;22194;50.046;21.954;2022-08-03T09:03:53;11.00;;;6.20;;
36137;SDS011;22194;50.046;21.954;2022-08-03T09:06:21;10.60;;;5.90;;
36137;SDS011;22194;50.046;21.954;2022-08-03T09:08:50;12.00;;;5.50;;
36137;SDS011;22194;50.046;21.954;2022-08-03T09:11:21;12.90;;;6.30;;
36137;SDS011;22194;50.046;21.954;2022-08-03T09:14:10;9.50;;;6.00;;
36137;SDS011;22194;50.046;21.954;2022-08-03T09:16:58;10.30;;;5.60;;
36137;SDS011;22194;50.046;21.954;2022-08-03T09:19:29;11.60;;;6.20;;
36137;SDS011;22194;50.046;21.954;2022-08-03T09:24:55;13.80;;;5.90;;
36137;SDS011;22194;50.046;21.954;2022-08-03T09:27:45;11.10;;;5.90;;
36137;SDS011;22194;50.046;21.954;2022-08-03T09:30:14;13.60;;;6.10;;
36137;SDS011;22194;50.046;21.954;2022-08-03T09:33:02;11.60;;;6.40;;
36137;SDS011;22194;50.046;21.954;2022-08-03T09:35:31;14.20;;;6.30;;
36137;SDS011;22194;50.046;21.954;2022-08-03T09:38:20;16.00;;;7.30;;
36137;SDS011;22194;50.046;21.954;2022-08-03T09:40:53;12.70;;;7.00;;
36137;SDS011;22194;50.046;21.954;2022-08-03T09:43:26;12.40;;;6.80;;
36137;SDS011;22194;50.046;21.954;2022-08-03T09:46:01;11.20;;;6.40;;
36137;SDS011;22194;50.046;21.954;2022-08-03T09:48:31;14.50;;;6.60;;
36137;SDS011;22194;50.046;21.954;2022-08-03T09:51:03;12.70;;;6.50;;
36137;SDS011;22194;50.046;21.954;2022-08-03T09:53:51;15.40;;;5.80;;
36137;SDS011;22194;50.046;21.954;2022-08-03T09:59:08;13.30;;;5.90;;
36137;SDS011;22194;50.046;21.954;2022-08-03T10:01:37;8.10;;;5.40;;
36137;SDS011;22194;50.046;21.954;2022-08-03T10:04:12;13.60;;;5.70;;
36137;SDS011;22194;50.046;21.954;2022-08-03T10:06:42;9.20;;;5.40;;
36137;SDS011;22194;50.046;21.954;2022-08-03T10:09:14;11.40;;;5.80;;
36137;SDS011;22194;50.046;21.954;2022-08-03T10:11:43;8.90;;;5.20;;
36137;SDS011;22194;50.046;21.954;2022-08-03T10:14:13;10.40;;;5.50;;
36137;SDS011;22194;50.046;21.954;2022-08-03T10:16:47;10.40;;;5.50;;
36137;SDS011;22194;50.046;21.954;2022-08-03T10:19:16;12.80;;;5.90;;
36137;SDS011;22194;50.046;21.954;2022-08-03T10:21:48;12.90;;;5.80;;
36137;SDS011;22194;50.046;21.954;2022-08-03T10:24:23;12.00;;;6.30;;
36137;SDS011;22194;50.046;21.954;2022-08-03T10:27:00;12.60;;;6.10;;
36137;SDS011;22194;50.046;21.954;2022-08-03T10:29:36;12.60;;;6.00;;
36137;SDS011;22194;50.046;21.954;2022-08-03T10:32:17;12.60;;;6.00;;
36137;SDS011;22194;50.046;21.954;2022-08-03T10:34:49;10.50;;;5.60;;
36137;SDS011;22194;50.046;21.954;2022-08-03T10:37:27;12.90;;;6.10;;
36137;SDS011;22194;50.046;21.954;2022-08-03T10:39:59;11.60;;;5.70;;
36137;SDS011;22194;50.046;21.954;2022-08-03T10:42:27;15.60;;;6.80;;
36137;SDS011;22194;50.046;21.954;2022-08-03T10:45:08;12.30;;;6.00;;
36137;SDS011;22194;50.046;21.954;2022-08-03T10:47:42;10.50;;;5.70;;
36137;SDS011;22194;50.046;21.954;2022-08-03T10:50:11;10.50;;;6.40;;
36137;SDS011;22194;50.046;21.954;2022-08-03T10:52:53;10.60;;;6.20;;
36137;SDS011;22194;50.046;21.954;2022-08-03T10:55:29;34.90;;;6.20;;
36137;SDS011;22194;50.046;21.954;2022-08-03T11:04:28;9.20;;;5.00;;
36137;SDS011;22194;50.046;21.954;2022-08-03T11:09:45;11.40;;;5.30;;
36137;SDS011;22194;50.046;21.954;2022-08-03T11:14:56;17.40;;;5.80;;
36137;SDS011;22194;50.046;21.954;2022-08-03T11:17:26;13.00;;;6.10;;
36137;SDS011;22194;50.046;21.954;2022-08-03T11:19:54;11.40;;;5.40;;
36137;SDS011;22194;50.046;21.954;2022-08-03T11:22:24;12.90;;;5.50;;
36137;SDS011;22194;50.046;21.954;2022-08-03T11:27:24;10.40;;;5.50;;
36137;SDS011;22194;50.046;21.954;2022-08-03T11:40:50;8.00;;;4.90;;
36137;SDS011;22194;50.046;21.954;2022-08-03T11:46:04;9.10;;;4.90;;
36137;SDS011;22194;50.046;21.954;2022-08-03T11:48:34;12.30;;;5.00;;
36137;SDS011;22194;50.046;21.954;2022-08-03T11:51:04;10.00;;;4.60;;
36137;SDS011;22194;50.046;21.954;2022-08-03T11:53:34;9.00;;;5.10;;
36137;SDS011;22194;50.046;21.954;2022-08-03T11:56:08;10.30;;;5.10;;
36137;SDS011;22194;50.046;21.954;2022-08-03T11:58:52;9.80;;;4.70;;
36137;SDS011;22194;50.046;21.954;2022-08-03T12:01:37;14.50;;;5.40;;
36137;SDS011;22194;50.046;21.954;2022-08-03T12:04:08;9.50;;;5.00;;
36137;SDS011;22194;50.046;21.954;2022-08-03T12:06:37;6.70;;;4.60;;
36137;SDS011;22194;50.046;21.954;2022-08-03T12:09:23;14.20;;;6.30;;
36137;SDS011;22194;50.046;21.954;2022-08-03T12:11:50;12.50;;;5.10;;
36137;SDS011;22194;50.046;21.954;2022-08-03T12:14:27;12.40;;;5.10;;
36137;SDS011;22194;50.046;21.954;2022-08-03T12:17:16;9.60;;;5.20;;
36137;SDS011;22194;50.046;21.954;2022-08-03T12:19:45;12.30;;;5.20;;
36137;SDS011;22194;50.046;21.954;2022-08-03T12:22:13;12.30;;;5.50;;
36137;SDS011;22194;50.046;21.954;2022-08-03T12:24:43;12.40;;;5.30;;
36137;SDS011;22194;50.046;21.954;2022-08-03T12:27:23;15.30;;;7.20;;
36137;SDS011;22194;50.046;21.954;2022-08-03T12:29:53;17.50;;;7.60;;
36137;SDS011;22194;50.046;21.954;2022-08-03T12:34:54;14.10;;;5.10;;
36137;SDS011;22194;50.046;21.954;2022-08-03T12:37:32;10.80;;;4.90;;
36137;SDS011;22194;50.046;21.954;2022-08-03T12:40:01;15.10;;;6.50;;
36137;SDS011;22194;50.046;21.954;2022-08-03T12:42:37;21.50;;;8.70;;
36137;SDS011;22194;50.046;21.954;2022-08-03T12:45:21;19.80;;;7.80;;
36137;SDS011;22194;50.046;21.954;2022-08-03T12:47:51;15.90;;;6.00;;
36137;SDS011;22194;50.046;21.954;2022-08-03T12:50:30;14.60;;;6.00;;
36137;SDS011;22194;50.046;21.954;2022-08-03T12:53:04;16.90;;;7.30;;
36137;SDS011;22194;50.046;21.954;2022-08-03T12:55:36;21.90;;;8.40;;
36137;SDS011;22194;50.046;21.954;2022-08-03T12:58:31;14.30;;;6.00;;
36137;SDS011;22194;50.046;21.954;2022-08-03T13:01:04;15.30;;;6.60;;
36137;SDS011;22194;50.046;21.954;2022-08-03T13:03:40;11.00;;;5.30;;
36137;SDS011;22194;50.046;21.954;2022-08-03T13:06:22;9.60;;;4.70;;
36137;SDS011;22194;50.046;21.954;2022-08-03T13:09:04;9.30;;;5.10;;
36137;SDS011;22194;50.046;21.954;2022-08-03T13:11:33;11.80;;;5.40;;
36137;SDS011;22194;50.046;21.954;2022-08-03T13:14:21;12.30;;;5.00;;
36137;SDS011;22194;50.046;21.954;2022-08-03T13:16:50;9.90;;;5.50;;
36137;SDS011;22194;50.046;21.954;2022-08-03T13:19:18;13.70;;;4.90;;
36137;SDS011;22194;50.046;21.954;2022-08-03T13:21:46;12.30;;;5.40;;
36137;SDS011;22194;50.046;21.954;2022-08-03T13:24:31;8.60;;;4.80;;
36137;SDS011;22194;50.046;21.954;2022-08-03T13:27:00;10.40;;;4.80;;
36137;SDS011;22194;50.046;21.954;2022-08-03T13:29:49;8.50;;;4.50;;
36137;SDS011;22194;50.046;21.954;2022-08-03T13:32:17;11.50;;;5.00;;
36137;SDS011;22194;50.046;21.954;2022-08-03T13:34:45;8.90;;;4.50;;
36137;SDS011;22194;50.046;21.954;2022-08-03T13:37:13;8.40;;;4.40;;
36137;SDS011;22194;50.046;21.954;2022-08-03T13:39:41;9.40;;;4.40;;
36137;SDS011;22194;50.046;21.954;2022-08-03T13:42:29;7.10;;;4.40;;
36137;SDS011;22194;50.046;21.954;2022-08-03T13:44:58;7.50;;;4.60;;
36137;SDS011;22194;50.046;21.954;2022-08-03T13:47:27;10.10;;;4.60;;
36137;SDS011;22194;50.046;21.954;2022-08-03T13:49:55;10.60;;;5.40;;
36137;SDS011;22194;50.046;21.954;2022-08-03T13:52:32;7.30;;;4.00;;
36137;SDS011;22194;50.046;21.954;2022-08-03T13:55:03;7.10;;;4.40;;
36137;SDS011;22194;50.046;21.954;2022-08-03T13:57:32;8.50;;;4.30;;
36137;SDS011;22194;50.046;21.954;2022-08-03T14:00:20;8.30;;;4.50;;
36137;SDS011;22194;50.046;21.954;2022-08-03T14:02:57;8.80;;;4.40;;
36137;SDS011;22194;50.046;21.954;2022-08-03T14:05:41;8.80;;;4.70;;
36137;SDS011;22194;50.046;21.954;2022-08-03T14:08:09;10.20;;;4.90;;
36137;SDS011;22194;50.046;21.954;2022-08-03T14:10:39;11.20;;;4.80;;
36137;SDS011;22194;50.046;21.954;2022-08-03T14:13:10;8.00;;;4.20;;
36137;SDS011;22194;50.046;21.954;2022-08-03T14:15:45;12.10;;;4.80;;
36137;SDS011;22194;50.046;21.954;2022-08-03T14:18:18;8.20;;;4.50;;
36137;SDS011;22194;50.046;21.954;2022-08-03T14:21:04;12.10;;;4.70;;
36137;SDS011;22194;50.046;21.954;2022-08-03T14:23:33;7.40;;;4.30;;
36137;SDS011;22194;50.046;21.954;2022-08-03T14:26:06;9.20;;;4.70;;
36137;SDS011;22194;50.046;21.954;2022-08-03T14:28:35;9.20;;;4.60;;
36137;SDS011;22194;50.046;21.954;2022-08-03T14:31:03;7.90;;;4.60;;
36137;SDS011;22194;50.046;21.954;2022-08-03T14:33:41;8.30;;;4.70;;
36137;SDS011;22194;50.046;21.954;2022-08-03T14:36:09;8.70;;;4.50;;
36137;SDS011;22194;50.046;21.954;2022-08-03T14:38:37;7.50;;;4.40;;
36137;SDS011;22194;50.046;21.954;2022-08-03T14:41:05;12.60;;;4.50;;
36137;SDS011;22194;50.046;21.954;2022-08-03T14:43:38;10.70;;;4.80;;
36137;SDS011;22194;50.046;21.954;2022-08-03T14:46:26;8.90;;;4.30;;
36137;SDS011;22194;50.046;21.954;2022-08-03T14:48:54;8.60;;;4.60;;
36137;SDS011;22194;50.046;21.954;2022-08-03T14:51:42;9.50;;;4.30;;
36137;SDS011;22194;50.046;21.954;2022-08-03T14:54:20;10.00;;;4.40;;
36137;SDS011;22194;50.046;21.954;2022-08-03T14:56:49;15.70;;;5.80;;
36137;SDS011;22194;50.046;21.954;2022-08-03T14:59:17;7.60;;;4.00;;
36137;SDS011;22194;50.046;21.954;2022-08-03T15:01:45;9.80;;;4.60;;
36137;SDS011;22194;50.046;21.954;2022-08-03T15:04:32;11.40;;;4.10;;
36137;SDS011;22194;50.046;21.954;2022-08-03T15:07:00;9.80;;;3.90;;
36137;SDS011;22194;50.046;21.954;2022-08-03T15:09:28;8.10;;;4.50;;
36137;SDS011;22194;50.046;21.954;2022-08-03T15:11:56;10.00;;;4.50;;
36137;SDS011;22194;50.046;21.954;2022-08-03T15:14:23;7.20;;;4.00;;
36137;SDS011;22194;50.046;21.954;2022-08-03T15:16:59;8.30;;;4.70;;
36137;SDS011;22194;50.046;21.954;2022-08-03T15:19:27;9.20;;;3.70;;
36137;SDS011;22194;50.046;21.954;2022-08-03T15:22:15;8.70;;;4.40;;
36137;SDS011;22194;50.046;21.954;2022-08-03T15:24:47;9.70;;;4.30;;
36137;SDS011;22194;50.046;21.954;2022-08-03T15:27:15;5.00;;;3.70;;
36137;SDS011;22194;50.046;21.954;2022-08-03T15:29:42;9.70;;;3.90;;
36137;SDS011;22194;50.046;21.954;2022-08-03T15:32:31;9.20;;;3.90;;
36137;SDS011;22194;50.046;21.954;2022-08-03T15:34:59;7.10;;;4.10;;
36137;SDS011;22194;50.046;21.954;2022-08-03T15:37:27;14.40;;;4.10;;